createdAt,value
2018-05-24T00:16:42.281Z,6.40
2018-05-24T00:17:13.941Z,7.45
2018-05-24T00:17:45.629Z,7.53
2018-05-24T00:18:17.245Z,6.93
2018-05-24T00:18:48.851Z,7.00
2018-05-24T00:19:20.483Z,6.62
2018-05-24T00:19:52.143Z,6.25
2018-05-24T00:20:25.193Z,6.70
2018-05-24T00:20:56.839Z,7.65
2018-05-24T00:21:28.491Z,7.55
2018-05-24T00:22:00.119Z,6.50
2018-05-24T00:22:31.765Z,6.70
2018-05-24T00:23:03.397Z,6.82
2018-05-24T00:23:35.045Z,6.72
2018-05-24T00:24:06.655Z,6.20
2018-05-24T00:24:38.287Z,6.50
2018-05-24T00:25:09.923Z,6.60
2018-05-24T00:25:41.573Z,6.60
2018-05-24T00:26:13.231Z,7.03
2018-05-24T00:26:44.863Z,7.07
2018-05-24T00:27:16.483Z,6.50
2018-05-24T00:27:48.127Z,6.72
2018-05-24T00:28:19.778Z,6.65
2018-05-24T00:28:51.415Z,6.45
2018-05-24T00:29:23.031Z,7.28
2018-05-24T00:29:54.651Z,6.15
2018-05-24T00:30:26.302Z,6.40
2018-05-24T00:30:57.916Z,6.62
2018-05-24T00:31:29.571Z,6.60
2018-05-24T00:32:01.231Z,6.30
2018-05-24T00:32:32.864Z,6.62
2018-05-24T00:33:04.491Z,6.70
2018-05-24T00:33:36.116Z,6.57
2018-05-24T00:34:07.739Z,6.78
2018-05-24T00:34:39.372Z,6.15
2018-05-24T00:35:11.021Z,6.22
2018-05-24T00:35:42.650Z,7.28
2018-05-24T00:36:14.288Z,6.70
2018-05-24T00:36:45.928Z,6.75
2018-05-24T00:37:17.576Z,6.53
2018-05-24T00:37:49.215Z,6.32
2018-05-24T00:38:20.832Z,6.50
2018-05-24T00:38:52.472Z,6.20
2018-05-24T00:39:24.114Z,6.87
2018-05-24T00:39:55.750Z,6.40
2018-05-24T00:40:27.390Z,6.28
2018-05-24T00:40:59.046Z,6.25
2018-05-24T00:41:30.696Z,6.57
2018-05-24T00:42:02.340Z,6.97
2018-05-24T00:42:33.979Z,6.62
2018-05-24T00:43:05.615Z,6.20
2018-05-24T00:43:37.284Z,5.93
2018-05-24T00:44:08.922Z,6.50
2018-05-24T00:44:40.554Z,6.75
2018-05-24T00:45:12.196Z,6.40
2018-05-24T00:45:43.826Z,6.40
2018-05-24T00:46:15.464Z,6.50
2018-05-24T00:46:47.105Z,6.30
2018-05-24T00:47:18.733Z,5.80
2018-05-24T00:47:50.363Z,6.53
2018-05-24T00:48:22.029Z,6.20
2018-05-24T00:48:53.706Z,6.90
2018-05-24T00:49:25.367Z,6.22
2018-05-24T00:49:57.004Z,6.28
2018-05-24T00:50:28.620Z,6.55
2018-05-24T00:51:00.266Z,6.43
2018-05-24T00:51:31.880Z,6.28
2018-05-24T00:52:03.544Z,6.15
2018-05-24T00:52:35.212Z,6.47
2018-05-24T00:53:06.877Z,6.00
2018-05-24T00:53:38.516Z,5.90
2018-05-24T00:54:10.140Z,6.30
2018-05-24T00:54:41.836Z,6.32
2018-05-24T00:55:31.952Z,6.28
2018-05-24T00:56:03.538Z,6.18
2018-05-24T00:56:35.164Z,6.75
2018-05-24T00:57:06.811Z,6.18
2018-05-24T00:57:38.458Z,6.93
2018-05-24T00:58:10.095Z,6.03
2018-05-24T00:58:41.738Z,6.57
2018-05-24T00:59:13.368Z,5.93
2018-05-24T00:59:45.013Z,6.53
2018-05-24T01:00:16.632Z,6.37
2018-05-24T01:00:48.293Z,6.07
2018-05-24T01:01:19.931Z,6.30
2018-05-24T01:01:51.560Z,5.97
2018-05-24T01:02:23.220Z,5.75
2018-05-24T01:02:54.852Z,5.87
2018-05-24T01:03:26.472Z,6.60
2018-05-24T01:03:58.100Z,5.78
2018-05-24T01:04:29.740Z,6.05
2018-05-24T01:05:01.370Z,6.30
2018-05-24T01:05:33.024Z,5.80
2018-05-24T01:06:04.677Z,5.75
2018-05-24T01:06:36.344Z,6.78
2018-05-24T01:07:07.980Z,6.25
2018-05-24T01:07:39.619Z,6.62
2018-05-24T01:08:11.242Z,6.28
2018-05-24T01:08:42.866Z,6.15
2018-05-24T01:09:14.484Z,6.30
2018-05-24T01:09:46.134Z,6.28
2018-05-24T01:10:17.800Z,6.07
2018-05-24T01:10:49.450Z,6.40
2018-05-24T01:11:21.102Z,5.80
2018-05-24T01:11:54.857Z,6.40
2018-05-24T01:12:26.504Z,6.30
2018-05-24T01:12:58.140Z,6.03
2018-05-24T01:13:29.764Z,6.20
2018-05-24T01:14:01.424Z,6.10
2018-05-24T01:14:33.089Z,6.50
2018-05-24T01:15:04.742Z,6.37
2018-05-24T01:15:36.370Z,7.10
2018-05-24T01:16:08.010Z,6.47
2018-05-24T01:16:39.648Z,6.57
2018-05-24T01:17:11.286Z,6.47
2018-05-24T01:17:42.924Z,6.43
2018-05-24T01:18:14.566Z,6.20
2018-05-24T01:18:46.206Z,6.40
2018-05-24T01:19:17.834Z,6.12
2018-05-24T01:19:49.468Z,7.15
2018-05-24T01:20:21.150Z,6.45
2018-05-24T01:20:52.773Z,6.20
2018-05-24T01:21:24.428Z,6.78
2018-05-24T01:21:56.078Z,5.97
2018-05-24T01:22:27.698Z,6.20
2018-05-24T01:22:59.321Z,6.55
2018-05-24T01:23:30.952Z,6.10
2018-05-24T01:24:02.629Z,6.22
2018-05-24T01:24:34.267Z,6.20
2018-05-24T01:25:05.878Z,6.60
2018-05-24T01:25:37.530Z,6.68
2018-05-24T01:26:09.165Z,6.20
2018-05-24T01:26:40.802Z,6.30
2018-05-24T01:27:12.425Z,6.25
2018-05-24T01:27:44.096Z,5.78
2018-05-24T01:28:15.775Z,6.62
2018-05-24T01:28:47.388Z,6.55
2018-05-24T01:29:19.013Z,6.45
2018-05-24T01:29:50.646Z,6.80
2018-05-24T01:30:22.314Z,6.53
2018-05-24T01:30:53.952Z,6.10
2018-05-24T01:31:25.596Z,7.00
2018-05-24T01:31:57.236Z,6.35
2018-05-24T01:32:28.863Z,6.78
2018-05-24T01:33:00.513Z,7.07
2018-05-24T01:33:32.145Z,6.60
2018-05-24T01:34:03.789Z,7.03
2018-05-24T01:34:35.416Z,6.68
2018-05-24T01:35:07.058Z,6.60
2018-05-24T01:35:38.687Z,7.53
2018-05-24T01:36:10.305Z,7.22
2018-05-24T01:37:13.209Z,7.78
2018-05-24T01:38:29.659Z,7.40
2018-05-24T01:39:01.288Z,7.03
2018-05-24T01:39:32.906Z,6.35
2018-05-24T01:40:04.559Z,6.72
2018-05-24T01:40:36.194Z,6.32
2018-05-24T01:41:07.819Z,6.45
2018-05-24T01:41:39.449Z,6.45
2018-05-24T01:42:11.072Z,5.82
2018-05-24T01:42:42.710Z,6.62
2018-05-24T01:43:14.326Z,6.37
2018-05-24T01:43:45.955Z,5.78
2018-05-24T01:44:17.580Z,5.53
2018-05-24T01:44:49.240Z,5.80
2018-05-24T01:45:20.863Z,6.30
2018-05-24T01:45:52.503Z,6.00
2018-05-24T01:46:24.143Z,5.70
2018-05-24T01:46:55.759Z,5.75
2018-05-24T01:47:27.361Z,6.15
2018-05-24T01:47:58.989Z,5.20
2018-05-24T01:48:30.612Z,6.20
2018-05-24T01:49:02.221Z,6.00
2018-05-24T01:49:33.834Z,5.72
2018-05-24T01:50:05.499Z,5.68
2018-05-24T01:50:37.146Z,6.28
2018-05-24T01:51:08.773Z,6.12
2018-05-24T01:51:40.421Z,5.90
2018-05-24T01:52:12.064Z,5.80
2018-05-24T01:52:43.709Z,5.85
2018-05-24T01:53:15.325Z,6.20
2018-05-24T01:53:46.953Z,5.60
2018-05-24T01:54:18.567Z,6.12
2018-05-24T01:54:50.228Z,6.12
2018-05-24T01:55:21.872Z,6.62
2018-05-24T01:55:53.508Z,5.72
2018-05-24T01:56:25.139Z,5.22
2018-05-24T01:56:56.774Z,5.32
2018-05-24T01:57:28.395Z,5.30
2018-05-24T01:58:00.051Z,6.32
2018-05-24T01:58:31.667Z,5.65
2018-05-24T01:59:03.295Z,5.57
2018-05-24T01:59:34.945Z,4.85
2018-05-24T02:00:06.603Z,5.97
2018-05-24T02:00:38.228Z,5.03
2018-05-24T02:01:09.873Z,5.22
2018-05-24T02:01:41.489Z,5.62
2018-05-24T02:02:13.108Z,5.43
2018-05-24T02:02:44.727Z,5.72
2018-05-24T02:03:16.440Z,5.50
2018-05-24T02:03:48.067Z,5.25
2018-05-24T02:04:19.691Z,5.72
2018-05-24T02:04:51.317Z,5.43
2018-05-24T02:05:22.929Z,5.30
2018-05-24T02:05:54.559Z,5.32
2018-05-24T02:06:26.195Z,5.15
2018-05-24T02:06:57.806Z,5.43
2018-05-24T02:07:29.439Z,5.75
2018-05-24T02:08:01.065Z,5.20
2018-05-24T02:08:32.705Z,4.80
2018-05-24T02:09:04.387Z,5.97
2018-05-24T02:09:36.019Z,5.57
2018-05-24T02:10:07.647Z,5.03
2018-05-24T02:10:39.305Z,4.93
2018-05-24T02:11:10.937Z,5.20
2018-05-24T02:11:42.565Z,5.07
2018-05-24T02:12:14.215Z,5.28
2018-05-24T02:12:45.882Z,5.22
2018-05-24T02:13:17.509Z,5.28
2018-05-24T02:13:49.130Z,4.90
2018-05-24T02:14:20.799Z,4.95
2018-05-24T02:14:52.427Z,5.28
2018-05-24T02:15:24.067Z,5.43
2018-05-24T02:15:55.699Z,5.65
2018-05-24T02:16:27.331Z,5.20
2018-05-24T02:16:58.967Z,5.12
2018-05-24T02:17:30.621Z,5.35
2018-05-24T02:18:02.239Z,5.30
2018-05-24T02:18:33.887Z,4.90
2018-05-24T02:19:05.507Z,5.65
2018-05-24T02:19:37.144Z,4.97
2018-05-24T02:20:08.785Z,4.90
2018-05-24T02:20:40.446Z,5.12
2018-05-24T02:21:12.069Z,5.40
2018-05-24T02:21:43.701Z,5.10
2018-05-24T02:22:15.306Z,4.70
2018-05-24T02:22:46.931Z,5.28
2018-05-24T02:23:18.554Z,5.22
2018-05-24T02:23:50.193Z,5.28
2018-05-24T02:24:21.873Z,5.15
2018-05-24T02:24:53.491Z,5.03
2018-05-24T02:25:25.113Z,4.80
2018-05-24T02:25:56.729Z,4.95
2018-05-24T02:26:28.328Z,4.85
2018-05-24T02:26:59.935Z,4.62
2018-05-24T02:27:31.597Z,5.35
2018-05-24T02:28:03.239Z,5.37
2018-05-24T02:28:34.899Z,5.40
2018-05-24T02:29:06.535Z,5.45
2018-05-24T02:29:38.162Z,4.87
2018-05-24T02:30:09.803Z,4.80
2018-05-24T02:30:41.455Z,5.30
2018-05-24T02:31:13.103Z,4.85
2018-05-24T02:31:44.737Z,4.70
2018-05-24T02:32:16.375Z,5.32
2018-05-24T02:32:48.001Z,5.30
2018-05-24T02:33:19.622Z,5.03
2018-05-24T02:33:51.275Z,5.07
2018-05-24T02:34:22.875Z,4.80
2018-05-24T02:34:54.535Z,4.93
2018-05-24T02:35:26.229Z,5.00
2018-05-24T02:35:57.987Z,4.85
2018-05-24T02:36:29.503Z,5.25
2018-05-24T02:37:01.134Z,4.97
2018-05-24T02:37:32.795Z,4.62
2018-05-24T02:38:05.337Z,5.05
2018-05-24T02:38:36.971Z,5.00
2018-05-24T02:39:08.599Z,5.32
2018-05-24T02:39:40.225Z,5.00
2018-05-24T02:40:11.852Z,5.28
2018-05-24T02:40:43.509Z,4.90
2018-05-24T02:41:15.155Z,5.00
2018-05-24T02:41:46.785Z,5.18
2018-05-24T02:42:18.410Z,5.30
2018-05-24T02:42:50.051Z,4.97
2018-05-24T02:43:21.669Z,4.75
2018-05-24T02:43:53.291Z,5.28
2018-05-24T02:44:24.996Z,4.70
2018-05-24T02:44:56.593Z,4.97
2018-05-24T02:45:28.203Z,5.35
2018-05-24T02:45:59.825Z,5.28
2018-05-24T02:46:31.476Z,5.10
2018-05-24T02:47:03.155Z,5.43
2018-05-24T02:47:34.800Z,5.80
2018-05-24T02:48:06.449Z,5.60
2018-05-24T02:48:38.073Z,5.30
2018-05-24T02:49:09.701Z,5.22
2018-05-24T02:49:41.328Z,5.55
2018-05-24T02:50:12.979Z,6.37
2018-05-24T02:50:44.616Z,7.43
2018-05-24T02:51:16.248Z,7.40
2018-05-24T02:51:47.877Z,7.82
2018-05-24T02:52:19.499Z,8.32
2018-05-24T02:52:51.119Z,7.85
2018-05-24T02:53:22.757Z,8.50
2018-05-24T02:53:54.392Z,8.68
2018-05-24T02:54:26.047Z,9.07
2018-05-24T02:54:57.665Z,9.80
2018-05-24T02:55:29.299Z,10.13
2018-05-24T02:56:00.935Z,9.32
2018-05-24T02:56:32.605Z,9.48
2018-05-24T02:57:04.237Z,9.88
2018-05-24T02:57:35.873Z,9.73
2018-05-24T02:58:07.488Z,10.50
2018-05-24T02:58:39.101Z,9.30
2018-05-24T02:59:10.728Z,9.93
2018-05-24T02:59:42.337Z,9.00
2018-05-24T03:00:13.968Z,8.90
2018-05-24T03:00:45.611Z,9.10
2018-05-24T03:01:17.241Z,8.93
2018-05-24T03:01:48.909Z,8.30
2018-05-24T03:02:20.491Z,8.43
2018-05-24T03:02:52.126Z,7.78
2018-05-24T03:03:23.769Z,7.32
2018-05-24T03:03:55.387Z,7.30
2018-05-24T03:04:27.019Z,7.45
2018-05-24T03:04:58.647Z,6.25
2018-05-24T03:05:30.263Z,6.50
2018-05-24T03:06:01.954Z,5.87
2018-05-24T03:06:33.567Z,5.95
2018-05-24T03:07:05.203Z,5.85
2018-05-24T03:07:36.830Z,5.72
2018-05-24T03:08:08.449Z,5.03
2018-05-24T03:08:40.101Z,5.62
2018-05-24T03:09:11.813Z,5.45
2018-05-24T03:09:43.456Z,5.93
2018-05-24T03:10:15.053Z,5.18
2018-05-24T03:10:46.696Z,6.10
2018-05-24T03:11:18.323Z,5.45
2018-05-24T03:11:49.973Z,5.25
2018-05-24T03:12:21.603Z,4.90
2018-05-24T03:12:53.235Z,5.32
2018-05-24T03:13:24.880Z,4.78
2018-05-24T03:13:56.498Z,5.25
2018-05-24T03:14:28.227Z,5.05
2018-05-24T03:14:59.791Z,5.32
2018-05-24T03:15:31.432Z,5.70
2018-05-24T03:16:03.079Z,4.93
2018-05-24T03:16:34.716Z,5.15
2018-05-24T03:17:06.366Z,5.28
2018-05-24T03:17:37.989Z,4.50
2018-05-24T03:18:09.643Z,4.75
2018-05-24T03:18:41.289Z,5.40
2018-05-24T03:19:12.928Z,4.75
2018-05-24T03:19:44.563Z,4.70
2018-05-24T03:20:16.197Z,5.43
2018-05-24T03:20:47.873Z,5.03
2018-05-24T03:21:19.504Z,4.60
2018-05-24T03:21:51.138Z,4.85
2018-05-24T03:22:22.770Z,4.70
2018-05-24T03:22:54.389Z,5.37
2018-05-24T03:23:26.007Z,5.07
2018-05-24T03:23:57.623Z,5.25
2018-05-24T03:24:29.258Z,4.80
2018-05-24T03:25:00.879Z,5.45
2018-05-24T03:25:32.531Z,5.32
2018-05-24T03:26:04.187Z,4.72
2018-05-24T03:26:35.815Z,5.28
2018-05-24T03:27:07.469Z,5.68
2018-05-24T03:27:39.105Z,5.65
2018-05-24T03:28:10.741Z,5.53
2018-05-24T03:28:42.361Z,6.05
2018-05-24T03:29:13.998Z,5.53
2018-05-24T03:29:45.629Z,5.82
2018-05-24T03:30:17.251Z,6.12
2018-05-24T03:30:48.893Z,5.90
2018-05-24T03:31:20.532Z,5.62
2018-05-24T03:31:52.169Z,6.45
2018-05-24T03:32:23.786Z,6.65
2018-05-24T03:32:55.415Z,6.80
2018-05-24T03:33:27.043Z,6.82
2018-05-24T03:33:58.653Z,7.28
2018-05-24T03:34:30.277Z,7.45
2018-05-24T03:35:01.939Z,8.02
2018-05-24T03:35:33.573Z,8.93
2018-05-24T03:36:05.209Z,8.23
2018-05-24T03:36:36.841Z,9.27
2018-05-24T03:37:08.462Z,8.98
2018-05-24T03:37:40.093Z,10.30
2018-05-24T03:38:11.695Z,10.27
2018-05-24T03:38:43.329Z,10.48
2018-05-24T03:39:14.959Z,9.55
2018-05-24T03:39:46.591Z,10.05
2018-05-24T03:40:18.223Z,10.57
2018-05-24T03:40:49.844Z,9.90
2018-05-24T03:41:21.463Z,10.02
2018-05-24T03:41:53.145Z,10.00
2018-05-24T03:42:24.799Z,9.65
2018-05-24T03:42:56.411Z,9.73
2018-05-24T03:43:28.034Z,9.63
2018-05-24T03:43:59.675Z,9.05
2018-05-24T03:44:31.309Z,9.38
2018-05-24T03:45:02.967Z,8.23
2018-05-24T03:45:34.585Z,9.18
2018-05-24T03:46:06.195Z,8.50
2018-05-24T03:46:37.825Z,8.00
2018-05-24T03:47:09.439Z,8.77
2018-05-24T03:47:41.081Z,8.05
2018-05-24T03:48:12.720Z,7.65
2018-05-24T03:48:44.331Z,7.62
2018-05-24T03:49:15.971Z,7.35
2018-05-24T03:49:47.611Z,6.37
2018-05-24T03:50:19.249Z,7.65
2018-05-24T03:50:50.893Z,6.72
2018-05-24T03:51:22.502Z,6.47
2018-05-24T03:51:54.147Z,6.18
2018-05-24T03:52:25.772Z,6.43
2018-05-24T03:52:57.397Z,6.28
2018-05-24T03:53:29.017Z,5.87
2018-05-24T03:54:00.621Z,5.75
2018-05-24T03:54:32.245Z,6.00
2018-05-24T03:55:03.891Z,5.68
2018-05-24T03:55:35.507Z,6.12
2018-05-24T03:56:07.135Z,5.40
2018-05-24T03:56:38.758Z,6.70
2018-05-24T03:57:10.389Z,5.60
2018-05-24T03:57:42.046Z,5.93
2018-05-24T03:58:13.672Z,5.78
2018-05-24T03:58:45.351Z,6.93
2018-05-24T04:01:03.983Z,7.12
2018-05-24T04:01:54.219Z,6.90
2018-05-24T04:02:44.473Z,6.87
2018-05-24T04:03:34.684Z,6.87
2018-05-24T04:04:25.017Z,6.80
2018-05-24T04:04:57.579Z,7.20
2018-05-24T04:05:29.221Z,7.37
2018-05-24T04:06:00.863Z,7.18
2018-05-24T04:16:22.541Z,8.40
2018-05-24T04:16:54.141Z,8.50
2018-05-24T04:17:25.743Z,7.62
2018-05-24T04:17:57.387Z,7.62
2018-05-24T04:18:28.994Z,7.65
2018-05-24T04:19:00.609Z,7.45
2018-05-24T04:19:32.229Z,7.35
2018-05-24T04:20:03.862Z,7.97
2018-05-24T04:20:35.475Z,8.02
2018-05-24T04:21:07.115Z,7.65
2018-05-24T04:21:38.749Z,7.05
2018-05-24T04:22:10.362Z,7.75
2018-05-24T04:22:41.990Z,7.93
2018-05-24T04:23:14.469Z,7.80
2018-05-24T04:23:46.106Z,6.65
2018-05-24T04:24:17.718Z,7.40
2018-05-24T04:24:49.412Z,7.15
2018-05-24T04:25:21.031Z,6.80
2018-05-24T04:25:52.658Z,7.45
2018-05-24T04:26:24.309Z,7.22
2018-05-24T04:26:55.952Z,7.32
2018-05-24T04:27:27.607Z,6.47
2018-05-24T04:27:59.242Z,7.22
2018-05-24T04:28:30.859Z,7.05
2018-05-24T04:29:02.491Z,6.72
2018-05-24T04:29:34.114Z,6.78
2018-05-24T04:30:05.752Z,6.80
2018-05-24T04:30:37.391Z,6.80
2018-05-24T04:31:09.041Z,6.55
2018-05-24T04:31:40.672Z,7.07
2018-05-24T04:32:12.356Z,6.93
2018-05-24T04:32:43.989Z,7.37
2018-05-24T04:33:15.634Z,6.55
2018-05-24T04:33:47.288Z,6.50
2018-05-24T04:34:18.928Z,5.85
2018-05-24T04:34:50.545Z,6.18
2018-05-24T04:35:22.180Z,5.97
2018-05-24T04:35:53.840Z,6.28
2018-05-24T04:36:25.447Z,5.95
2018-05-24T04:36:57.087Z,5.93
2018-05-24T04:37:28.718Z,5.85
2018-05-24T04:38:00.350Z,5.93
2018-05-24T04:38:31.984Z,6.12
2018-05-24T04:39:03.665Z,5.60
2018-05-24T04:39:35.321Z,5.72
2018-05-24T04:40:06.948Z,5.60
2018-05-24T04:40:38.582Z,5.00
2018-05-24T04:41:10.231Z,4.97
2018-05-24T04:41:41.846Z,5.53
2018-05-24T04:42:13.480Z,5.60
2018-05-24T04:42:45.136Z,5.68
2018-05-24T04:43:16.754Z,5.03
2018-05-24T04:43:48.397Z,4.87
2018-05-24T04:44:20.035Z,4.93
2018-05-24T04:44:51.674Z,5.00
2018-05-24T04:45:23.598Z,5.45
2018-05-24T04:45:55.206Z,5.50
2018-05-24T04:46:26.841Z,5.37
2018-05-24T04:46:58.488Z,6.28
2018-05-24T04:47:30.100Z,5.62
2018-05-24T04:48:01.738Z,6.20
2018-05-24T04:48:33.352Z,6.30
2018-05-24T04:49:04.994Z,5.75
2018-05-24T04:49:36.634Z,5.82
2018-05-24T04:50:08.254Z,6.60
2018-05-24T04:50:39.844Z,5.93
2018-05-24T04:51:11.467Z,5.93
2018-05-24T04:51:43.096Z,6.22
2018-05-24T04:52:14.740Z,6.45
2018-05-24T04:52:46.347Z,6.70
2018-05-24T04:53:17.992Z,6.20
2018-05-24T04:53:49.610Z,6.30
2018-05-24T04:54:21.222Z,5.43
2018-05-24T04:54:52.834Z,5.97
2018-05-24T04:55:24.459Z,6.07
2018-05-24T04:55:56.083Z,5.90
2018-05-24T04:56:27.704Z,6.57
2018-05-24T04:56:59.324Z,5.62
2018-05-24T04:57:30.971Z,5.35
2018-05-24T04:58:02.599Z,5.50
2018-05-24T04:58:34.218Z,5.62
2018-05-24T04:59:05.835Z,5.65
2018-05-24T04:59:37.474Z,5.43
2018-05-24T05:00:09.099Z,5.28
2018-05-24T05:00:40.742Z,5.37
2018-05-24T05:01:12.370Z,5.75
2018-05-24T05:01:44.052Z,5.22
2018-05-24T05:02:15.656Z,5.43
2018-05-24T05:02:47.273Z,5.10
2018-05-24T05:03:18.903Z,5.43
2018-05-24T05:03:50.580Z,4.97
2018-05-24T05:04:22.202Z,5.65
2018-05-24T05:04:53.834Z,5.28
2018-05-24T05:05:25.436Z,5.90
2018-05-24T05:05:57.199Z,5.82
2018-05-24T05:06:28.847Z,5.85
2018-05-24T05:07:00.473Z,5.62
2018-05-24T05:07:32.119Z,5.22
2018-05-24T05:08:03.738Z,5.53
2018-05-24T05:08:35.388Z,5.45
2018-05-24T05:09:07.038Z,5.70
2018-05-24T05:09:38.661Z,5.10
2018-05-24T05:10:10.301Z,5.10
2018-05-24T05:10:41.937Z,5.62
2018-05-24T05:11:13.565Z,5.32
2018-05-24T05:11:45.190Z,5.80
2018-05-24T05:12:16.848Z,5.32
2018-05-24T05:12:48.488Z,5.35
2018-05-24T05:13:20.170Z,5.30
2018-05-24T05:13:51.725Z,5.55
2018-05-24T05:14:23.420Z,5.47
2018-05-24T05:14:55.060Z,6.00
2018-05-24T05:15:26.692Z,5.60
2018-05-24T05:15:58.318Z,5.93
2018-05-24T05:16:29.943Z,6.35
2018-05-24T05:17:01.567Z,5.20
2018-05-24T05:17:33.200Z,5.80
2018-05-24T05:18:04.819Z,6.22
2018-05-24T05:18:36.459Z,5.65
2018-05-24T05:19:08.089Z,5.50
2018-05-24T05:19:39.740Z,4.95
2018-05-24T05:20:11.359Z,5.72
2018-05-24T05:20:42.979Z,5.93
2018-05-24T05:21:14.642Z,5.72
2018-05-24T05:21:46.261Z,5.75
2018-05-24T05:22:17.892Z,5.57
2018-05-24T05:22:49.524Z,4.80
2018-05-24T05:23:21.961Z,5.32
2018-05-24T05:23:53.584Z,5.35
2018-05-24T05:24:25.200Z,5.20
2018-05-24T05:24:56.833Z,5.20
2018-05-24T05:25:43.378Z,5.57
2018-05-24T05:26:15.029Z,5.75
2018-05-24T05:26:46.718Z,5.87
2018-05-24T05:27:18.363Z,5.82
2018-05-24T05:27:50.003Z,5.72
2018-05-24T05:28:21.631Z,6.20
2018-05-24T05:28:53.248Z,5.68
2018-05-24T05:29:24.864Z,5.78
2018-05-24T05:29:56.480Z,5.40
2018-05-24T05:30:28.092Z,5.07
2018-05-24T05:30:59.706Z,4.75
2018-05-24T05:31:31.341Z,4.55
2018-05-24T05:32:02.981Z,5.03
2018-05-24T05:32:34.632Z,4.95
2018-05-24T05:33:06.242Z,4.43
2018-05-24T05:33:37.855Z,5.00
2018-05-24T05:34:09.483Z,4.97
2018-05-24T05:34:41.150Z,5.03
2018-05-24T05:35:12.777Z,5.18
2018-05-24T05:35:44.388Z,5.43
2018-05-24T05:36:15.998Z,5.25
2018-05-24T05:36:47.635Z,5.28
2018-05-24T05:37:19.296Z,5.35
2018-05-24T05:37:50.918Z,5.12
2018-05-24T05:38:22.549Z,5.45
2018-05-24T05:38:54.167Z,5.60
2018-05-24T05:39:25.799Z,5.75
2018-05-24T05:39:57.416Z,5.65
2018-05-24T05:40:29.045Z,5.95
2018-05-24T05:41:00.693Z,5.28
2018-05-24T05:41:47.262Z,4.82
2018-05-24T05:42:18.887Z,5.50
2018-05-24T05:42:50.521Z,5.07
2018-05-24T05:43:22.159Z,4.87
2018-05-24T05:43:53.812Z,4.97
2018-05-24T05:44:25.447Z,4.65
2018-05-24T05:44:57.146Z,4.47
2018-05-24T05:45:28.715Z,4.97
2018-05-24T05:46:00.331Z,4.37
2018-05-24T05:46:31.949Z,4.80
2018-05-24T05:47:03.563Z,5.05
2018-05-24T05:47:35.233Z,4.75
2018-05-24T05:48:06.857Z,4.57
2018-05-24T05:48:38.443Z,4.62
2018-05-24T05:49:10.083Z,4.50
2018-05-24T05:49:41.703Z,4.53
2018-05-24T05:50:13.347Z,4.78
2018-05-24T05:50:44.979Z,4.80
2018-05-24T05:51:16.623Z,4.20
2018-05-24T05:51:48.231Z,4.65
2018-05-24T05:52:19.834Z,4.60
2018-05-24T05:52:51.469Z,4.50
2018-05-24T05:53:23.121Z,4.22
2018-05-24T05:53:54.743Z,4.18
2018-05-24T05:54:26.370Z,4.60
2018-05-24T05:54:57.987Z,4.80
2018-05-24T05:55:29.610Z,4.65
2018-05-24T05:56:01.265Z,4.40
2018-05-24T05:56:32.902Z,4.65
2018-05-24T05:57:04.553Z,4.68
2018-05-24T05:57:36.185Z,4.80
2018-05-24T05:58:07.802Z,4.45
2018-05-24T05:58:39.448Z,4.60
2018-05-24T05:59:11.092Z,5.15
2018-05-24T05:59:42.705Z,5.15
2018-05-24T06:00:14.309Z,4.97
2018-05-24T06:00:45.931Z,4.93
2018-05-24T06:01:17.555Z,4.55
2018-05-24T06:01:49.246Z,4.93
2018-05-24T06:02:20.833Z,4.50
2018-05-24T06:02:52.453Z,4.87
2018-05-24T06:03:24.080Z,4.87
2018-05-24T06:03:55.706Z,4.80
2018-05-24T06:04:27.377Z,4.85
2018-05-24T06:04:59.015Z,4.72
2018-05-24T06:05:30.655Z,5.50
2018-05-24T06:06:02.302Z,5.50
2018-05-24T06:06:33.917Z,4.90
2018-05-24T06:07:05.571Z,4.80
2018-05-24T06:07:37.205Z,5.18
2018-05-24T06:08:08.805Z,5.53
2018-05-24T06:08:40.468Z,5.30
2018-05-24T06:09:12.111Z,5.22
2018-05-24T06:09:43.748Z,5.00
2018-05-24T06:10:15.349Z,5.20
2018-05-24T06:10:46.966Z,4.85
2018-05-24T06:11:18.601Z,5.05
2018-05-24T06:11:50.247Z,5.00
2018-05-24T06:12:21.875Z,4.55
2018-05-24T06:12:53.495Z,4.80
2018-05-24T06:13:25.127Z,4.75
2018-05-24T06:13:56.770Z,4.60
2018-05-24T06:14:28.359Z,4.37
2018-05-24T06:15:00.025Z,4.70
2018-05-24T06:15:31.717Z,5.28
2018-05-24T06:16:03.311Z,5.35
2018-05-24T06:16:34.923Z,5.10
2018-05-24T06:17:06.571Z,5.25
2018-05-24T06:17:38.235Z,4.75
2018-05-24T06:18:09.855Z,4.82
2018-05-24T06:18:41.491Z,4.62
2018-05-24T06:19:13.113Z,4.43
2018-05-24T06:19:44.749Z,4.00
2018-05-24T06:20:16.371Z,4.18
2018-05-24T06:20:48.050Z,3.60
2018-05-24T06:21:19.725Z,4.07
2018-05-24T06:21:51.377Z,3.87
2018-05-24T06:22:23.005Z,3.97
2018-05-24T06:22:54.615Z,3.87
2018-05-24T06:23:26.273Z,4.32
2018-05-24T06:23:57.885Z,4.00
2018-05-24T06:24:29.513Z,4.20
2018-05-24T06:25:01.130Z,4.10
2018-05-24T06:25:32.764Z,4.30
2018-05-24T06:26:04.367Z,4.22
2018-05-24T06:26:36.022Z,4.05
2018-05-24T06:27:07.665Z,4.40
2018-05-24T06:27:39.309Z,4.30
2018-05-24T06:28:10.904Z,4.00
2018-05-24T06:28:42.555Z,4.12
2018-05-24T06:29:14.169Z,3.78
2018-05-24T06:29:45.793Z,4.12
2018-05-24T06:30:17.391Z,4.47
2018-05-24T06:30:48.996Z,4.43
2018-05-24T06:31:20.625Z,4.90
2018-05-24T06:31:52.247Z,4.30
2018-05-24T06:32:23.887Z,4.60
2018-05-24T06:32:55.521Z,4.22
2018-05-24T06:33:42.075Z,4.40
2018-05-24T06:34:13.712Z,3.90
2018-05-24T06:34:45.337Z,3.92
2018-05-24T06:35:17.026Z,4.60
2018-05-24T06:35:48.607Z,3.95
2018-05-24T06:36:20.235Z,4.15
2018-05-24T06:36:51.845Z,4.10
2018-05-24T06:37:23.468Z,4.10
2018-05-24T06:37:55.073Z,4.65
2018-05-24T06:38:26.677Z,5.18
2018-05-24T06:38:58.296Z,4.57
2018-05-24T06:39:29.911Z,4.60
2018-05-24T06:40:01.604Z,4.53
2018-05-24T06:40:33.196Z,5.78
2018-05-24T06:41:04.830Z,4.70
2018-05-24T06:41:36.489Z,4.93
2018-05-24T06:42:08.141Z,4.32
2018-05-24T06:42:39.761Z,4.15
2018-05-24T06:43:11.387Z,4.12
2018-05-24T06:43:43.014Z,4.18
2018-05-24T06:44:14.634Z,4.30
2018-05-24T06:44:46.259Z,4.30
2018-05-24T06:45:17.874Z,4.07
2018-05-24T06:45:49.524Z,4.30
2018-05-24T06:46:21.159Z,4.93
2018-05-24T06:46:52.813Z,3.95
2018-05-24T06:47:24.467Z,4.35
2018-05-24T06:47:56.087Z,4.80
2018-05-24T06:48:27.700Z,4.20
2018-05-24T06:48:59.975Z,4.12
2018-05-24T06:49:31.596Z,4.43
2018-05-24T06:50:03.289Z,4.28
2018-05-24T06:50:34.934Z,4.28
2018-05-24T06:51:06.579Z,4.25
2018-05-24T06:51:38.275Z,4.47
2018-05-24T06:52:09.924Z,4.25
2018-05-24T06:52:41.538Z,4.65
2018-05-24T06:53:13.176Z,4.30
2018-05-24T06:53:44.827Z,4.20
2018-05-24T06:54:16.445Z,4.90
2018-05-24T06:54:48.091Z,4.80
2018-05-24T06:55:19.729Z,4.40
2018-05-24T06:55:51.386Z,4.55
2018-05-24T06:56:23.020Z,4.72
2018-05-24T06:56:54.632Z,4.57
2018-05-24T06:57:26.287Z,4.67
2018-05-24T06:57:57.912Z,5.22
2018-05-24T06:58:29.604Z,4.60
2018-05-24T06:59:01.165Z,4.78
2018-05-24T06:59:32.806Z,5.20
2018-05-24T07:00:04.433Z,4.78
2018-05-24T07:00:36.102Z,5.05
2018-05-24T07:01:07.735Z,4.55
2018-05-24T07:01:39.368Z,5.15
2018-05-24T07:02:10.975Z,4.70
2018-05-24T07:02:42.586Z,5.15
2018-05-24T07:03:14.420Z,4.60
2018-05-24T07:03:46.074Z,4.45
2018-05-24T07:04:17.721Z,4.93
2018-05-24T07:04:49.370Z,4.55
2018-05-24T07:05:21.056Z,4.75
2018-05-24T07:05:52.748Z,4.55
2018-05-24T07:06:24.331Z,4.68
2018-05-24T07:06:55.955Z,4.32
2018-05-24T07:07:27.676Z,4.45
2018-05-24T07:07:59.235Z,5.15
2018-05-24T07:08:30.878Z,4.65
2018-05-24T07:09:02.579Z,4.90
2018-05-24T07:09:34.232Z,4.97
2018-05-24T07:10:05.878Z,5.10
2018-05-24T07:10:37.494Z,4.87
2018-05-24T07:11:09.171Z,5.78
2018-05-24T07:11:40.738Z,4.60
2018-05-24T07:12:13.518Z,5.30
2018-05-24T07:12:45.221Z,4.87
2018-05-24T07:13:16.918Z,4.57
2018-05-24T07:13:48.565Z,5.40
2018-05-24T07:14:20.173Z,4.80
2018-05-24T07:14:51.783Z,4.85
2018-05-24T07:15:23.415Z,4.75
2018-05-24T07:15:55.032Z,4.87
2018-05-24T07:16:26.649Z,4.85
2018-05-24T07:16:58.259Z,4.87
2018-05-24T07:17:29.863Z,5.10
2018-05-24T07:18:01.528Z,4.55
2018-05-24T07:18:33.171Z,4.60
2018-05-24T07:19:04.809Z,4.93
2018-05-24T07:19:36.435Z,5.47
2018-05-24T07:20:08.054Z,5.00
2018-05-24T07:20:39.677Z,4.78
2018-05-24T07:21:11.301Z,4.82
2018-05-24T07:21:42.992Z,4.87
2018-05-24T07:22:14.609Z,4.93
2018-05-24T07:22:46.284Z,4.80
2018-05-24T07:23:17.940Z,4.47
2018-05-24T07:23:49.583Z,5.20
2018-05-24T07:24:21.218Z,4.43
2018-05-24T07:24:52.851Z,4.72
2018-05-24T07:25:24.457Z,4.97
2018-05-24T07:25:56.081Z,4.22
2018-05-24T07:26:27.697Z,5.12
2018-05-24T07:26:59.309Z,4.60
2018-05-24T07:27:30.951Z,4.93
2018-05-24T07:28:02.599Z,4.53
2018-05-24T07:28:34.221Z,4.85
2018-05-24T07:29:05.847Z,4.62
2018-05-24T07:29:37.507Z,4.65
2018-05-24T07:30:09.111Z,4.60
2018-05-24T07:30:40.743Z,4.22
2018-05-24T07:31:12.364Z,4.47
2018-05-24T07:31:44.011Z,4.07
2018-05-24T07:32:15.661Z,4.72
2018-05-24T07:32:47.294Z,4.82